Strona główna
METAR-TAF:

METAR-TAF

Lotnisko :

Newark-Heath Airport

Newark, Ohio, Stany Zjednoczone

Szerokość geograficzna: 40-01-22N, Długość geograficzna: 082-27-45W, wysokość: 269 m

Aktualna obserwacja pogody

Raport powstał 30 minut temu, godzina 12:54 UTC
Wiatr 5 kt od południowo-południowy zachód
Temperatura 18°C
Wilgotność 88%
Ciśnienie 1021 hPa
Widzialność: 16.1 km
Mało chmury na wysokości 8000 ft

METAR: KVTA 211254Z AUTO 20005KT 10SM FEW080 18/16 A3014 RMK AO2 SLP206 T01780156

czas: 09:24 (13:24 UTC)


TAF: brakujący

Obserwacja i prognoza pogody dla ponad 4000 lotnisk (raport METAR i TAF).

Dostępne stacje oznaczono żółtymi i czerwonymi punktami na mapie.

Najedź kursorem aby zobaczyć nazwę stacji.

Kliknij aby zobaczyć obserwacje i prognozy pogody.

Aby zmienić mapę: kliknij na zielony przycisk z czarnym krzyżykiem, aby powiększyć; na zielony przycisk z myślnikiem, aby pomniejszyć; na zielone strzałki, aby przejść do map sąsiednich.


METAR-TAF: